sensor_id;sensor_type;location;lat;lon;timestamp;P1;durP1;ratioP1;P2;durP2;ratioP2
64060;SDS011;60147;55.036;73.242;2024-01-06T00:01:33;10.35;;;5.18;;
64060;SDS011;60147;55.036;73.242;2024-01-06T00:03:59;10.73;;;5.28;;
64060;SDS011;60147;55.036;73.242;2024-01-06T00:06:25;22.15;;;6.25;;
64060;SDS011;60147;55.036;73.242;2024-01-06T00:08:51;7.55;;;3.75;;
64060;SDS011;60147;55.036;73.242;2024-01-06T00:11:19;16.10;;;6.40;;
64060;SDS011;60147;55.036;73.242;2024-01-06T00:13:46;12.82;;;5.93;;
64060;SDS011;60147;55.036;73.242;2024-01-06T00:16:12;12.90;;;4.60;;
64060;SDS011;60147;55.036;73.242;2024-01-06T00:18:38;10.10;;;4.05;;
64060;SDS011;60147;55.036;73.242;2024-01-06T00:21:04;10.32;;;4.97;;
64060;SDS011;60147;55.036;73.242;2024-01-06T00:23:30;8.48;;;3.60;;
64060;SDS011;60147;55.036;73.242;2024-01-06T00:25:56;8.52;;;4.40;;
64060;SDS011;60147;55.036;73.242;2024-01-06T00:28:22;14.40;;;5.78;;
64060;SDS011;60147;55.036;73.242;2024-01-06T00:30:48;15.35;;;5.93;;
64060;SDS011;60147;55.036;73.242;2024-01-06T00:33:14;19.48;;;6.43;;
64060;SDS011;60147;55.036;73.242;2024-01-06T00:35:41;9.32;;;5.82;;
64060;SDS011;60147;55.036;73.242;2024-01-06T00:38:07;15.40;;;6.40;;
64060;SDS011;60147;55.036;73.242;2024-01-06T00:40:33;15.65;;;6.20;;
64060;SDS011;60147;55.036;73.242;2024-01-06T00:42:58;25.45;;;6.00;;
64060;SDS011;60147;55.036;73.242;2024-01-06T00:45:24;11.57;;;4.35;;
64060;SDS011;60147;55.036;73.242;2024-01-06T00:47:50;12.15;;;4.57;;
64060;SDS011;60147;55.036;73.242;2024-01-06T00:50:19;17.25;;;5.60;;
64060;SDS011;60147;55.036;73.242;2024-01-06T00:52:45;25.10;;;5.72;;
64060;SDS011;60147;55.036;73.242;2024-01-06T00:55:11;17.52;;;6.50;;
64060;SDS011;60147;55.036;73.242;2024-01-06T00:57:37;9.95;;;4.78;;
64060;SDS011;60147;55.036;73.242;2024-01-06T01:00:04;10.07;;;4.53;;
64060;SDS011;60147;55.036;73.242;2024-01-06T01:02:31;12.88;;;4.88;;
64060;SDS011;60147;55.036;73.242;2024-01-06T01:04:57;9.38;;;4.45;;
64060;SDS011;60147;55.036;73.242;2024-01-06T01:07:23;14.00;;;5.40;;
64060;SDS011;60147;55.036;73.242;2024-01-06T01:09:49;11.57;;;6.15;;
64060;SDS011;60147;55.036;73.242;2024-01-06T01:12:15;10.85;;;6.05;;
64060;SDS011;60147;55.036;73.242;2024-01-06T01:14:41;18.13;;;6.63;;
64060;SDS011;60147;55.036;73.242;2024-01-06T01:17:07;12.98;;;5.35;;
64060;SDS011;60147;55.036;73.242;2024-01-06T01:19:33;15.10;;;6.00;;
64060;SDS011;60147;55.036;73.242;2024-01-06T01:21:59;17.45;;;8.10;;
64060;SDS011;60147;55.036;73.242;2024-01-06T01:24:25;21.33;;;7.80;;
64060;SDS011;60147;55.036;73.242;2024-01-06T01:26:51;18.02;;;7.95;;
64060;SDS011;60147;55.036;73.242;2024-01-06T01:29:17;22.98;;;9.23;;
64060;SDS011;60147;55.036;73.242;2024-01-06T01:31:46;21.55;;;6.53;;
64060;SDS011;60147;55.036;73.242;2024-01-06T01:34:12;21.42;;;7.32;;
64060;SDS011;60147;55.036;73.242;2024-01-06T01:36:38;25.85;;;8.73;;
64060;SDS011;60147;55.036;73.242;2024-01-06T01:39:04;16.27;;;6.35;;
64060;SDS011;60147;55.036;73.242;2024-01-06T01:41:30;19.35;;;7.28;;
64060;SDS011;60147;55.036;73.242;2024-01-06T01:43:56;27.27;;;8.13;;
64060;SDS011;60147;55.036;73.242;2024-01-06T01:46:28;21.60;;;8.95;;
64060;SDS011;60147;55.036;73.242;2024-01-06T01:48:54;12.57;;;6.30;;
64060;SDS011;60147;55.036;73.242;2024-01-06T01:51:21;10.48;;;5.05;;
64060;SDS011;60147;55.036;73.242;2024-01-06T01:53:47;8.70;;;5.40;;
64060;SDS011;60147;55.036;73.242;2024-01-06T01:56:14;20.27;;;7.55;;
64060;SDS011;60147;55.036;73.242;2024-01-06T01:58:40;21.58;;;8.57;;
64060;SDS011;60147;55.036;73.242;2024-01-06T02:01:06;20.13;;;6.55;;
64060;SDS011;60147;55.036;73.242;2024-01-06T02:03:33;21.00;;;9.02;;
64060;SDS011;60147;55.036;73.242;2024-01-06T02:05:59;16.38;;;6.57;;
64060;SDS011;60147;55.036;73.242;2024-01-06T02:08:25;36.28;;;8.65;;
64060;SDS011;60147;55.036;73.242;2024-01-06T02:10:51;20.40;;;8.00;;
64060;SDS011;60147;55.036;73.242;2024-01-06T02:13:17;29.13;;;9.73;;
64060;SDS011;60147;55.036;73.242;2024-01-06T02:15:44;30.23;;;6.63;;
64060;SDS011;60147;55.036;73.242;2024-01-06T02:18:10;20.50;;;5.75;;
64060;SDS011;60147;55.036;73.242;2024-01-06T02:20:36;27.77;;;9.98;;
64060;SDS011;60147;55.036;73.242;2024-01-06T02:23:02;22.30;;;8.63;;
64060;SDS011;60147;55.036;73.242;2024-01-06T02:25:28;8.65;;;4.95;;
64060;SDS011;60147;55.036;73.242;2024-01-06T02:27:55;22.83;;;7.82;;
64060;SDS011;60147;55.036;73.242;2024-01-06T02:30:21;16.40;;;6.72;;
64060;SDS011;60147;55.036;73.242;2024-01-06T02:32:47;16.73;;;7.03;;
64060;SDS011;60147;55.036;73.242;2024-01-06T02:35:12;7.97;;;5.45;;
64060;SDS011;60147;55.036;73.242;2024-01-06T02:37:38;21.25;;;7.95;;
64060;SDS011;60147;55.036;73.242;2024-01-06T02:40:04;13.82;;;6.88;;
64060;SDS011;60147;55.036;73.242;2024-01-06T02:42:30;18.42;;;7.32;;
64060;SDS011;60147;55.036;73.242;2024-01-06T02:44:56;21.95;;;7.78;;
64060;SDS011;60147;55.036;73.242;2024-01-06T02:47:22;14.15;;;5.32;;
64060;SDS011;60147;55.036;73.242;2024-01-06T02:49:48;17.33;;;6.72;;
64060;SDS011;60147;55.036;73.242;2024-01-06T02:52:14;15.68;;;6.30;;
64060;SDS011;60147;55.036;73.242;2024-01-06T02:54:40;15.10;;;7.10;;
64060;SDS011;60147;55.036;73.242;2024-01-06T02:57:06;14.35;;;6.03;;
64060;SDS011;60147;55.036;73.242;2024-01-06T02:59:32;9.15;;;5.82;;
64060;SDS011;60147;55.036;73.242;2024-01-06T03:02:01;18.23;;;7.22;;
64060;SDS011;60147;55.036;73.242;2024-01-06T03:04:27;19.45;;;6.85;;
64060;SDS011;60147;55.036;73.242;2024-01-06T03:06:53;17.70;;;7.47;;
64060;SDS011;60147;55.036;73.242;2024-01-06T03:09:19;12.48;;;6.45;;
64060;SDS011;60147;55.036;73.242;2024-01-06T03:11:45;14.50;;;5.40;;
64060;SDS011;60147;55.036;73.242;2024-01-06T03:14:11;16.45;;;6.50;;
64060;SDS011;60147;55.036;73.242;2024-01-06T03:16:37;17.75;;;6.20;;
64060;SDS011;60147;55.036;73.242;2024-01-06T03:19:03;15.93;;;5.90;;
64060;SDS011;60147;55.036;73.242;2024-01-06T03:21:29;17.83;;;6.43;;
64060;SDS011;60147;55.036;73.242;2024-01-06T03:23:55;21.63;;;7.88;;
64060;SDS011;60147;55.036;73.242;2024-01-06T03:26:21;18.63;;;6.57;;
64060;SDS011;60147;55.036;73.242;2024-01-06T03:28:50;15.20;;;6.93;;
64060;SDS011;60147;55.036;73.242;2024-01-06T03:31:16;11.57;;;5.47;;
64060;SDS011;60147;55.036;73.242;2024-01-06T03:33:43;12.45;;;5.68;;
64060;SDS011;60147;55.036;73.242;2024-01-06T03:36:09;11.55;;;7.55;;
64060;SDS011;60147;55.036;73.242;2024-01-06T03:38:38;17.50;;;8.52;;
64060;SDS011;60147;55.036;73.242;2024-01-06T03:41:03;18.23;;;7.72;;
64060;SDS011;60147;55.036;73.242;2024-01-06T03:43:29;14.40;;;6.70;;
64060;SDS011;60147;55.036;73.242;2024-01-06T03:45:56;20.80;;;8.00;;
64060;SDS011;60147;55.036;73.242;2024-01-06T03:48:23;19.13;;;8.10;;
64060;SDS011;60147;55.036;73.242;2024-01-06T03:50:49;24.48;;;11.18;;
64060;SDS011;60147;55.036;73.242;2024-01-06T03:53:15;20.70;;;10.30;;
64060;SDS011;60147;55.036;73.242;2024-01-06T03:55:41;19.85;;;9.07;;
64060;SDS011;60147;55.036;73.242;2024-01-06T03:58:07;12.93;;;6.80;;
64060;SDS011;60147;55.036;73.242;2024-01-06T04:00:33;29.35;;;9.98;;
64060;SDS011;60147;55.036;73.242;2024-01-06T04:02:58;17.10;;;9.02;;
64060;SDS011;60147;55.036;73.242;2024-01-06T04:05:24;22.20;;;9.77;;
64060;SDS011;60147;55.036;73.242;2024-01-06T04:07:50;14.13;;;7.40;;
64060;SDS011;60147;55.036;73.242;2024-01-06T04:10:16;18.02;;;8.55;;
64060;SDS011;60147;55.036;73.242;2024-01-06T04:12:42;18.60;;;8.55;;
64060;SDS011;60147;55.036;73.242;2024-01-06T04:15:08;22.75;;;7.70;;
64060;SDS011;60147;55.036;73.242;2024-01-06T04:17:34;19.08;;;8.35;;
64060;SDS011;60147;55.036;73.242;2024-01-06T04:20:00;20.02;;;8.18;;
64060;SDS011;60147;55.036;73.242;2024-01-06T04:22:26;16.40;;;7.45;;
64060;SDS011;60147;55.036;73.242;2024-01-06T04:24:52;21.63;;;9.00;;
64060;SDS011;60147;55.036;73.242;2024-01-06T04:27:18;9.30;;;5.95;;
64060;SDS011;60147;55.036;73.242;2024-01-06T04:29:44;9.48;;;6.47;;
64060;SDS011;60147;55.036;73.242;2024-01-06T04:32:10;15.48;;;8.63;;
64060;SDS011;60147;55.036;73.242;2024-01-06T04:34:36;12.02;;;6.57;;
64060;SDS011;60147;55.036;73.242;2024-01-06T04:37:01;16.33;;;7.32;;
64060;SDS011;60147;55.036;73.242;2024-01-06T04:39:27;14.40;;;6.95;;
64060;SDS011;60147;55.036;73.242;2024-01-06T04:41:53;16.27;;;7.88;;
64060;SDS011;60147;55.036;73.242;2024-01-06T04:44:20;17.73;;;7.78;;
64060;SDS011;60147;55.036;73.242;2024-01-06T04:46:46;16.17;;;9.50;;
64060;SDS011;60147;55.036;73.242;2024-01-06T04:49:12;13.55;;;6.82;;
64060;SDS011;60147;55.036;73.242;2024-01-06T04:51:38;32.00;;;13.25;;
64060;SDS011;60147;55.036;73.242;2024-01-06T04:54:04;23.02;;;9.55;;
64060;SDS011;60147;55.036;73.242;2024-01-06T04:56:30;18.48;;;6.68;;
64060;SDS011;60147;55.036;73.242;2024-01-06T04:58:56;16.17;;;7.50;;
64060;SDS011;60147;55.036;73.242;2024-01-06T05:01:23;10.95;;;6.13;;
64060;SDS011;60147;55.036;73.242;2024-01-06T05:03:49;25.95;;;10.55;;
64060;SDS011;60147;55.036;73.242;2024-01-06T05:06:26;22.33;;;10.35;;
64060;SDS011;60147;55.036;73.242;2024-01-06T05:08:52;13.93;;;6.68;;
64060;SDS011;60147;55.036;73.242;2024-01-06T05:11:18;12.05;;;5.93;;
64060;SDS011;60147;55.036;73.242;2024-01-06T05:13:44;13.98;;;6.72;;
64060;SDS011;60147;55.036;73.242;2024-01-06T05:16:10;30.52;;;16.65;;
64060;SDS011;60147;55.036;73.242;2024-01-06T05:18:36;10.98;;;7.13;;
64060;SDS011;60147;55.036;73.242;2024-01-06T05:21:02;22.92;;;10.00;;
64060;SDS011;60147;55.036;73.242;2024-01-06T05:23:29;17.77;;;7.05;;
64060;SDS011;60147;55.036;73.242;2024-01-06T05:25:54;17.45;;;7.80;;
64060;SDS011;60147;55.036;73.242;2024-01-06T05:28:20;12.10;;;7.00;;
64060;SDS011;60147;55.036;73.242;2024-01-06T05:30:46;10.05;;;7.32;;
64060;SDS011;60147;55.036;73.242;2024-01-06T05:33:12;12.63;;;6.78;;
64060;SDS011;60147;55.036;73.242;2024-01-06T05:35:39;24.98;;;7.63;;
64060;SDS011;60147;55.036;73.242;2024-01-06T05:38:05;18.20;;;8.23;;
64060;SDS011;60147;55.036;73.242;2024-01-06T05:40:30;13.10;;;7.70;;
64060;SDS011;60147;55.036;73.242;2024-01-06T05:42:56;6.10;;;4.22;;
64060;SDS011;60147;55.036;73.242;2024-01-06T05:45:23;11.38;;;7.45;;
64060;SDS011;60147;55.036;73.242;2024-01-06T05:47:49;11.45;;;4.88;;
64060;SDS011;60147;55.036;73.242;2024-01-06T05:50:15;13.77;;;6.50;;
64060;SDS011;60147;55.036;73.242;2024-01-06T05:52:41;14.25;;;8.23;;
64060;SDS011;60147;55.036;73.242;2024-01-06T05:55:07;21.75;;;7.57;;
64060;SDS011;60147;55.036;73.242;2024-01-06T05:57:33;28.27;;;8.02;;
64060;SDS011;60147;55.036;73.242;2024-01-06T05:59:59;24.55;;;8.57;;
64060;SDS011;60147;55.036;73.242;2024-01-06T06:02:25;23.90;;;10.27;;
64060;SDS011;60147;55.036;73.242;2024-01-06T06:04:51;14.30;;;7.00;;
64060;SDS011;60147;55.036;73.242;2024-01-06T06:07:18;11.85;;;6.45;;
64060;SDS011;60147;55.036;73.242;2024-01-06T06:09:44;14.98;;;6.65;;
64060;SDS011;60147;55.036;73.242;2024-01-06T06:12:13;33.17;;;10.13;;
64060;SDS011;60147;55.036;73.242;2024-01-06T06:14:39;17.20;;;7.68;;
64060;SDS011;60147;55.036;73.242;2024-01-06T06:17:05;14.77;;;7.18;;
64060;SDS011;60147;55.036;73.242;2024-01-06T06:19:31;13.82;;;7.57;;
64060;SDS011;60147;55.036;73.242;2024-01-06T06:21:58;17.15;;;7.93;;
64060;SDS011;60147;55.036;73.242;2024-01-06T06:24:24;49.83;;;18.27;;
64060;SDS011;60147;55.036;73.242;2024-01-06T06:26:49;13.10;;;5.90;;
64060;SDS011;60147;55.036;73.242;2024-01-06T06:29:15;38.95;;;19.85;;
64060;SDS011;60147;55.036;73.242;2024-01-06T06:31:41;24.13;;;9.82;;
64060;SDS011;60147;55.036;73.242;2024-01-06T06:34:10;21.40;;;7.38;;
64060;SDS011;60147;55.036;73.242;2024-01-06T06:36:36;12.30;;;7.25;;
64060;SDS011;60147;55.036;73.242;2024-01-06T06:39:02;11.00;;;6.28;;
64060;SDS011;60147;55.036;73.242;2024-01-06T06:41:29;8.38;;;5.93;;
64060;SDS011;60147;55.036;73.242;2024-01-06T06:43:58;6.18;;;4.20;;
64060;SDS011;60147;55.036;73.242;2024-01-06T06:46:25;11.52;;;7.00;;
64060;SDS011;60147;55.036;73.242;2024-01-06T06:48:51;11.30;;;5.30;;
64060;SDS011;60147;55.036;73.242;2024-01-06T06:51:17;10.55;;;6.22;;
64060;SDS011;60147;55.036;73.242;2024-01-06T06:53:43;17.80;;;6.55;;
64060;SDS011;60147;55.036;73.242;2024-01-06T06:56:09;9.50;;;6.07;;
64060;SDS011;60147;55.036;73.242;2024-01-06T06:58:35;11.38;;;6.10;;
64060;SDS011;60147;55.036;73.242;2024-01-06T07:01:01;11.82;;;5.82;;
64060;SDS011;60147;55.036;73.242;2024-01-06T07:03:43;9.52;;;5.78;;
64060;SDS011;60147;55.036;73.242;2024-01-06T07:06:13;11.75;;;5.95;;
64060;SDS011;60147;55.036;73.242;2024-01-06T07:08:40;14.40;;;6.07;;
64060;SDS011;60147;55.036;73.242;2024-01-06T07:11:07;12.52;;;6.22;;
64060;SDS011;60147;55.036;73.242;2024-01-06T07:13:33;13.45;;;5.93;;
64060;SDS011;60147;55.036;73.242;2024-01-06T07:15:59;14.32;;;5.68;;
64060;SDS011;60147;55.036;73.242;2024-01-06T07:18:25;19.15;;;7.45;;
64060;SDS011;60147;55.036;73.242;2024-01-06T07:20:51;21.10;;;8.25;;
64060;SDS011;60147;55.036;73.242;2024-01-06T07:23:17;15.98;;;7.60;;
64060;SDS011;60147;55.036;73.242;2024-01-06T07:25:43;15.43;;;5.97;;
64060;SDS011;60147;55.036;73.242;2024-01-06T07:28:09;19.40;;;9.57;;
64060;SDS011;60147;55.036;73.242;2024-01-06T07:30:35;19.95;;;7.45;;
64060;SDS011;60147;55.036;73.242;2024-01-06T07:33:01;15.38;;;5.78;;
64060;SDS011;60147;55.036;73.242;2024-01-06T07:35:28;11.73;;;6.32;;
64060;SDS011;60147;55.036;73.242;2024-01-06T07:37:54;13.80;;;5.95;;
64060;SDS011;60147;55.036;73.242;2024-01-06T07:40:20;15.07;;;7.53;;
64060;SDS011;60147;55.036;73.242;2024-01-06T07:42:46;18.20;;;6.40;;
64060;SDS011;60147;55.036;73.242;2024-01-06T07:45:12;11.98;;;5.22;;
64060;SDS011;60147;55.036;73.242;2024-01-06T07:47:38;15.68;;;8.45;;
64060;SDS011;60147;55.036;73.242;2024-01-06T07:50:05;9.90;;;5.05;;
64060;SDS011;60147;55.036;73.242;2024-01-06T07:52:31;17.83;;;5.35;;
64060;SDS011;60147;55.036;73.242;2024-01-06T07:54:56;8.15;;;4.47;;
64060;SDS011;60147;55.036;73.242;2024-01-06T07:57:22;12.07;;;6.70;;
64060;SDS011;60147;55.036;73.242;2024-01-06T07:59:48;8.50;;;5.15;;
64060;SDS011;60147;55.036;73.242;2024-01-06T08:02:14;7.32;;;5.15;;
64060;SDS011;60147;55.036;73.242;2024-01-06T08:04:40;9.85;;;4.93;;
64060;SDS011;60147;55.036;73.242;2024-01-06T08:07:06;8.02;;;5.15;;
64060;SDS011;60147;55.036;73.242;2024-01-06T08:09:32;7.60;;;4.63;;
64060;SDS011;60147;55.036;73.242;2024-01-06T08:11:58;7.03;;;3.95;;
64060;SDS011;60147;55.036;73.242;2024-01-06T08:14:24;16.02;;;5.65;;
64060;SDS011;60147;55.036;73.242;2024-01-06T08:16:56;9.60;;;4.60;;
64060;SDS011;60147;55.036;73.242;2024-01-06T08:19:22;9.70;;;6.25;;
64060;SDS011;60147;55.036;73.242;2024-01-06T08:21:48;8.65;;;4.53;;
64060;SDS011;60147;55.036;73.242;2024-01-06T08:24:14;12.90;;;6.25;;
64060;SDS011;60147;55.036;73.242;2024-01-06T08:26:40;8.48;;;4.75;;
64060;SDS011;60147;55.036;73.242;2024-01-06T08:29:06;8.07;;;5.72;;
64060;SDS011;60147;55.036;73.242;2024-01-06T08:31:32;17.30;;;5.85;;
64060;SDS011;60147;55.036;73.242;2024-01-06T08:33:58;10.57;;;6.30;;
64060;SDS011;60147;55.036;73.242;2024-01-06T08:36:24;12.38;;;6.18;;
64060;SDS011;60147;55.036;73.242;2024-01-06T08:38:50;10.38;;;5.57;;
64060;SDS011;60147;55.036;73.242;2024-01-06T08:41:16;12.23;;;5.90;;
64060;SDS011;60147;55.036;73.242;2024-01-06T08:43:42;14.30;;;6.78;;
64060;SDS011;60147;55.036;73.242;2024-01-06T08:46:08;14.13;;;5.00;;
64060;SDS011;60147;55.036;73.242;2024-01-06T08:48:34;11.25;;;5.15;;
64060;SDS011;60147;55.036;73.242;2024-01-06T08:51:00;9.48;;;5.18;;
64060;SDS011;60147;55.036;73.242;2024-01-06T08:53:26;10.35;;;5.07;;
64060;SDS011;60147;55.036;73.242;2024-01-06T08:55:52;10.38;;;5.90;;
64060;SDS011;60147;55.036;73.242;2024-01-06T08:58:18;10.32;;;4.53;;
64060;SDS011;60147;55.036;73.242;2024-01-06T09:00:44;17.10;;;6.38;;
64060;SDS011;60147;55.036;73.242;2024-01-06T09:03:10;10.20;;;5.10;;
64060;SDS011;60147;55.036;73.242;2024-01-06T09:05:38;20.13;;;5.20;;
64060;SDS011;60147;55.036;73.242;2024-01-06T09:08:04;19.38;;;6.20;;
64060;SDS011;60147;55.036;73.242;2024-01-06T09:10:30;15.70;;;6.53;;
64060;SDS011;60147;55.036;73.242;2024-01-06T09:12:56;9.68;;;4.43;;
64060;SDS011;60147;55.036;73.242;2024-01-06T09:15:22;8.18;;;5.05;;
64060;SDS011;60147;55.036;73.242;2024-01-06T09:17:49;13.13;;;6.35;;
64060;SDS011;60147;55.036;73.242;2024-01-06T09:20:15;19.10;;;6.15;;
64060;SDS011;60147;55.036;73.242;2024-01-06T09:22:42;11.52;;;5.63;;
64060;SDS011;60147;55.036;73.242;2024-01-06T09:25:08;11.45;;;6.55;;
64060;SDS011;60147;55.036;73.242;2024-01-06T09:27:34;9.52;;;5.20;;
64060;SDS011;60147;55.036;73.242;2024-01-06T09:30:00;12.63;;;5.43;;
64060;SDS011;60147;55.036;73.242;2024-01-06T09:32:26;9.25;;;6.15;;
64060;SDS011;60147;55.036;73.242;2024-01-06T09:34:52;10.15;;;5.13;;
64060;SDS011;60147;55.036;73.242;2024-01-06T09:37:18;15.10;;;6.25;;
64060;SDS011;60147;55.036;73.242;2024-01-06T09:39:44;9.10;;;5.63;;
64060;SDS011;60147;55.036;73.242;2024-01-06T09:42:10;10.85;;;5.05;;
64060;SDS011;60147;55.036;73.242;2024-01-06T09:44:37;11.13;;;6.05;;
64060;SDS011;60147;55.036;73.242;2024-01-06T09:47:03;22.55;;;6.70;;
64060;SDS011;60147;55.036;73.242;2024-01-06T09:49:30;18.17;;;6.68;;
64060;SDS011;60147;55.036;73.242;2024-01-06T09:51:58;11.65;;;7.20;;
64060;SDS011;60147;55.036;73.242;2024-01-06T09:54:24;17.98;;;7.55;;
64060;SDS011;60147;55.036;73.242;2024-01-06T09:56:51;15.77;;;7.25;;
64060;SDS011;60147;55.036;73.242;2024-01-06T09:59:17;12.10;;;6.10;;
64060;SDS011;60147;55.036;73.242;2024-01-06T10:01:44;15.75;;;8.73;;
64060;SDS011;60147;55.036;73.242;2024-01-06T10:04:10;11.63;;;6.13;;
64060;SDS011;60147;55.036;73.242;2024-01-06T10:06:36;15.40;;;5.97;;
64060;SDS011;60147;55.036;73.242;2024-01-06T10:09:02;12.73;;;6.13;;
64060;SDS011;60147;55.036;73.242;2024-01-06T10:11:30;12.75;;;6.35;;
64060;SDS011;60147;55.036;73.242;2024-01-06T10:13:56;10.27;;;6.10;;
64060;SDS011;60147;55.036;73.242;2024-01-06T10:16:22;12.10;;;7.72;;
64060;SDS011;60147;55.036;73.242;2024-01-06T10:18:48;13.98;;;6.78;;
64060;SDS011;60147;55.036;73.242;2024-01-06T10:21:14;16.42;;;6.90;;
64060;SDS011;60147;55.036;73.242;2024-01-06T10:23:43;15.43;;;5.95;;
64060;SDS011;60147;55.036;73.242;2024-01-06T10:26:14;19.08;;;7.95;;
64060;SDS011;60147;55.036;73.242;2024-01-06T10:28:40;12.45;;;8.20;;
64060;SDS011;60147;55.036;73.242;2024-01-06T10:31:07;14.85;;;7.00;;
64060;SDS011;60147;55.036;73.242;2024-01-06T10:33:33;15.50;;;7.03;;
64060;SDS011;60147;55.036;73.242;2024-01-06T10:36:00;28.85;;;12.60;;
64060;SDS011;60147;55.036;73.242;2024-01-06T10:38:26;32.28;;;11.68;;
64060;SDS011;60147;55.036;73.242;2024-01-06T10:40:59;31.17;;;14.15;;
64060;SDS011;60147;55.036;73.242;2024-01-06T10:43:26;31.13;;;11.40;;
64060;SDS011;60147;55.036;73.242;2024-01-06T10:45:55;78.43;;;30.00;;
64060;SDS011;60147;55.036;73.242;2024-01-06T10:48:26;40.83;;;15.05;;
64060;SDS011;60147;55.036;73.242;2024-01-06T10:50:54;172.77;;;57.45;;
64060;SDS011;60147;55.036;73.242;2024-01-06T10:53:20;53.53;;;20.92;;
64060;SDS011;60147;55.036;73.242;2024-01-06T10:55:49;67.53;;;29.25;;
64060;SDS011;60147;55.036;73.242;2024-01-06T10:58:14;51.08;;;22.35;;
64060;SDS011;60147;55.036;73.242;2024-01-06T11:00:42;66.18;;;24.48;;
64060;SDS011;60147;55.036;73.242;2024-01-06T11:03:08;52.92;;;20.77;;
64060;SDS011;60147;55.036;73.242;2024-01-06T11:05:35;24.77;;;12.80;;
64060;SDS011;60147;55.036;73.242;2024-01-06T11:08:02;32.53;;;15.40;;
64060;SDS011;60147;55.036;73.242;2024-01-06T11:10:29;32.92;;;13.18;;
64060;SDS011;60147;55.036;73.242;2024-01-06T11:13:14;45.22;;;23.73;;
64060;SDS011;60147;55.036;73.242;2024-01-06T11:15:44;64.38;;;32.10;;
64060;SDS011;60147;55.036;73.242;2024-01-06T11:18:30;35.35;;;16.73;;
64060;SDS011;60147;55.036;73.242;2024-01-06T11:21:16;39.65;;;20.45;;
64060;SDS011;60147;55.036;73.242;2024-01-06T11:26:32;36.60;;;16.10;;
64060;SDS011;60147;55.036;73.242;2024-01-06T11:28:58;60.95;;;20.38;;
64060;SDS011;60147;55.036;73.242;2024-01-06T11:31:31;123.97;;;37.83;;
64060;SDS011;60147;55.036;73.242;2024-01-06T11:33:58;192.50;;;51.83;;
64060;SDS011;60147;55.036;73.242;2024-01-06T11:36:47;248.35;;;68.35;;
64060;SDS011;60147;55.036;73.242;2024-01-06T11:41:59;409.50;;;102.68;;
64060;SDS011;60147;55.036;73.242;2024-01-06T11:44:27;384.67;;;106.53;;
64060;SDS011;60147;55.036;73.242;2024-01-06T11:46:55;369.30;;;106.55;;
64060;SDS011;60147;55.036;73.242;2024-01-06T11:49:21;278.63;;;77.28;;
64060;SDS011;60147;55.036;73.242;2024-01-06T11:51:50;72.50;;;23.10;;
64060;SDS011;60147;55.036;73.242;2024-01-06T11:54:16;54.22;;;20.33;;
64060;SDS011;60147;55.036;73.242;2024-01-06T11:56:42;36.65;;;16.73;;
64060;SDS011;60147;55.036;73.242;2024-01-06T11:59:08;31.40;;;15.63;;
64060;SDS011;60147;55.036;73.242;2024-01-06T12:01:38;39.85;;;16.35;;
64060;SDS011;60147;55.036;73.242;2024-01-06T12:04:06;34.10;;;15.70;;
64060;SDS011;60147;55.036;73.242;2024-01-06T12:06:33;38.50;;;15.82;;
64060;SDS011;60147;55.036;73.242;2024-01-06T12:09:09;35.05;;;15.98;;
64060;SDS011;60147;55.036;73.242;2024-01-06T12:11:35;36.15;;;15.57;;
64060;SDS011;60147;55.036;73.242;2024-01-06T12:14:03;30.95;;;15.30;;
64060;SDS011;60147;55.036;73.242;2024-01-06T12:16:29;47.42;;;17.88;;
64060;SDS011;60147;55.036;73.242;2024-01-06T12:19:06;69.30;;;25.73;;
64060;SDS011;60147;55.036;73.242;2024-01-06T12:21:32;61.50;;;25.27;;
64060;SDS011;60147;55.036;73.242;2024-01-06T12:24:13;83.82;;;30.58;;
64060;SDS011;60147;55.036;73.242;2024-01-06T12:26:44;94.35;;;30.45;;
64060;SDS011;60147;55.036;73.242;2024-01-06T12:29:10;99.65;;;31.83;;
64060;SDS011;60147;55.036;73.242;2024-01-06T12:31:37;85.43;;;30.85;;
64060;SDS011;60147;55.036;73.242;2024-01-06T12:34:14;92.35;;;26.60;;
64060;SDS011;60147;55.036;73.242;2024-01-06T12:36:48;66.75;;;24.13;;
64060;SDS011;60147;55.036;73.242;2024-01-06T12:39:18;121.63;;;33.45;;
64060;SDS011;60147;55.036;73.242;2024-01-06T12:41:44;119.43;;;29.23;;
64060;SDS011;60147;55.036;73.242;2024-01-06T12:44:10;91.15;;;24.95;;
64060;SDS011;60147;55.036;73.242;2024-01-06T12:46:36;117.32;;;31.17;;
64060;SDS011;60147;55.036;73.242;2024-01-06T12:49:02;96.75;;;31.15;;
64060;SDS011;60147;55.036;73.242;2024-01-06T12:51:28;68.78;;;23.90;;
64060;SDS011;60147;55.036;73.242;2024-01-06T12:53:54;75.68;;;23.02;;
64060;SDS011;60147;55.036;73.242;2024-01-06T12:56:20;83.47;;;24.00;;
64060;SDS011;60147;55.036;73.242;2024-01-06T12:58:46;106.38;;;34.05;;
64060;SDS011;60147;55.036;73.242;2024-01-06T13:01:12;70.18;;;23.65;;
64060;SDS011;60147;55.036;73.242;2024-01-06T13:03:38;110.80;;;32.65;;
64060;SDS011;60147;55.036;73.242;2024-01-06T13:06:05;124.88;;;38.15;;
64060;SDS011;60147;55.036;73.242;2024-01-06T13:08:30;159.95;;;41.42;;
64060;SDS011;60147;55.036;73.242;2024-01-06T13:10:56;134.10;;;36.72;;
64060;SDS011;60147;55.036;73.242;2024-01-06T13:13:22;111.10;;;33.58;;
64060;SDS011;60147;55.036;73.242;2024-01-06T13:15:48;95.85;;;29.95;;
64060;SDS011;60147;55.036;73.242;2024-01-06T13:18:26;76.85;;;26.60;;
64060;SDS011;60147;55.036;73.242;2024-01-06T13:21:11;90.20;;;23.85;;
64060;SDS011;60147;55.036;73.242;2024-01-06T13:23:54;69.63;;;24.88;;
64060;SDS011;60147;55.036;73.242;2024-01-06T13:26:25;75.03;;;22.65;;
64060;SDS011;60147;55.036;73.242;2024-01-06T13:28:51;82.90;;;25.85;;
64060;SDS011;60147;55.036;73.242;2024-01-06T13:31:28;91.10;;;27.45;;
64060;SDS011;60147;55.036;73.242;2024-01-06T13:33:54;97.35;;;32.08;;
64060;SDS011;60147;55.036;73.242;2024-01-06T13:36:21;132.30;;;46.55;;
64060;SDS011;60147;55.036;73.242;2024-01-06T13:38:58;53.30;;;21.70;;
64060;SDS011;60147;55.036;73.242;2024-01-06T13:41:25;41.20;;;16.42;;
64060;SDS011;60147;55.036;73.242;2024-01-06T13:43:52;39.50;;;17.33;;
64060;SDS011;60147;55.036;73.242;2024-01-06T13:46:18;49.00;;;24.15;;
64060;SDS011;60147;55.036;73.242;2024-01-06T13:48:44;57.90;;;25.58;;
64060;SDS011;60147;55.036;73.242;2024-01-06T13:51:10;58.15;;;23.83;;
64060;SDS011;60147;55.036;73.242;2024-01-06T13:53:50;53.67;;;20.73;;
64060;SDS011;60147;55.036;73.242;2024-01-06T13:56:16;58.92;;;24.67;;
64060;SDS011;60147;55.036;73.242;2024-01-06T13:58:43;54.35;;;23.40;;
64060;SDS011;60147;55.036;73.242;2024-01-06T14:01:09;80.32;;;28.00;;
64060;SDS011;60147;55.036;73.242;2024-01-06T14:03:37;55.90;;;25.65;;
64060;SDS011;60147;55.036;73.242;2024-01-06T14:06:03;57.97;;;27.05;;
64060;SDS011;60147;55.036;73.242;2024-01-06T14:08:29;69.80;;;26.25;;
64060;SDS011;60147;55.036;73.242;2024-01-06T14:10:55;68.45;;;25.15;;
64060;SDS011;60147;55.036;73.242;2024-01-06T14:13:21;66.82;;;26.90;;
64060;SDS011;60147;55.036;73.242;2024-01-06T14:15:47;76.85;;;28.33;;
64060;SDS011;60147;55.036;73.242;2024-01-06T14:18:13;68.75;;;30.52;;
64060;SDS011;60147;55.036;73.242;2024-01-06T14:20:41;86.38;;;30.27;;
64060;SDS011;60147;55.036;73.242;2024-01-06T14:23:07;68.70;;;29.08;;